Time;durP1;ratioP1;P1;durP2;ratioP2;P2;SDS_P1;SDS_P2;PMS_P1;PMS_P2;Temp;Humidity;BMP_temperature;BMP_pressure;BME280_temperature;BME280_humidity;BME280_pressure;Samples;Min_cycle;Max_cycle;Signal;HPM_P1;HPM_P2
2021/03/21 00:00:09;;;;;;;11.27;8.23;;;;;;;11.66;77.18;101915.13;5053873;28;20020;-89
2021/03/21 00:02:35;;;;;;;11.60;8.45;;;;;;;11.62;77.76;101920.63;5052880;28;20051;-90
2021/03/21 00:05:00;;;;;;;11.82;7.57;;;;;;;11.62;77.33;101908.31;5044155;28;20380;-90
2021/03/21 00:07:25;;;;;;;10.93;8.15;;;;;;;11.74;77.08;101922.66;5050667;28;20029;-89
2021/03/21 00:09:51;;;;;;;11.93;8.18;;;;;;;11.51;78.18;101913.22;5053516;28;20064;-90
2021/03/21 00:12:16;;;;;;;12.48;7.82;;;;;;;11.66;77.45;101916.91;5052395;28;20048;-88
2021/03/21 00:14:41;;;;;;;7.68;6.75;;;;;;;11.64;77.58;101900.34;5051349;28;20471;-88
2021/03/21 00:17:07;;;;;;;11.07;7.75;;;;;;;11.74;77.34;101906.03;5052908;28;20491;-88
2021/03/21 00:19:32;;;;;;;10.25;7.32;;;;;;;11.62;77.71;101894.31;5051855;28;20067;-88
2021/03/21 00:21:57;;;;;;;9.40;7.22;;;;;;;11.83;76.39;101892.41;5052032;28;20029;-88
2021/03/21 00:24:23;;;;;;;10.85;7.72;;;;;;;11.63;77.20;101896.00;5052832;28;20025;-88
2021/03/21 00:26:48;;;;;;;10.02;7.43;;;;;;;11.73;76.46;101913.06;5053063;28;20490;-88
2021/03/21 00:29:14;;;;;;;7.20;5.60;;;;;;;11.63;76.33;101906.53;5052988;28;20383;-88
2021/03/21 00:31:39;;;;;;;7.22;5.53;;;;;;;11.43;76.01;101874.16;5052636;28;20025;-87
2021/03/21 00:34:05;;;;;;;7.25;4.78;;;;;;;11.54;75.51;101907.84;5049721;28;20033;-88
2021/03/21 00:36:30;;;;;;;7.72;4.75;;;;;;;11.11;76.06;101892.28;5052695;28;20025;-90
2021/03/21 00:38:56;;;;;;;4.70;3.95;;;;;;;11.26;75.53;101911.78;5052108;28;20047;-89
2021/03/21 00:41:25;;;;;;;4.43;3.88;;;;;;;11.48;73.87;101908.97;5052880;28;20378;-88
2021/03/21 00:43:51;;;;;;;3.70;3.30;;;;;;;11.32;72.92;101905.38;5052851;28;20025;-89
2021/03/21 00:46:17;;;;;;;6.25;3.72;;;;;;;11.25;72.35;101890.81;5052640;28;20028;-89
2021/03/21 00:48:45;;;;;;;5.03;3.88;;;;;;;11.31;72.61;101907.16;5050718;28;20099;-89
2021/03/21 00:51:12;;;;;;;3.72;3.00;;;;;;;10.98;73.27;101882.41;5052443;28;20079;-89
2021/03/21 00:53:39;;;;;;;4.88;3.70;;;;;;;11.12;72.29;101895.78;5051862;28;20036;-89
2021/03/21 00:56:05;;;;;;;5.07;3.30;;;;;;;11.13;72.04;101904.53;5050930;28;20047;-89
2021/03/21 00:58:31;;;;;;;4.15;3.47;;;;;;;11.05;71.98;101904.88;5050807;28;20028;-89
2021/03/21 01:00:59;;;;;;;4.05;3.50;;;;;;;10.77;72.98;101900.03;5052161;28;20430;-89
2021/03/21 01:03:24;;;;;;;4.35;3.67;;;;;;;10.87;72.24;101896.06;5050589;28;20389;-89
2021/03/21 01:05:57;;;;;;;3.90;3.40;;;;;;;11.18;71.93;101905.19;5032290;28;20030;-89
2021/03/21 01:08:41;;;;;;;3.67;3.13;;;;;;;11.21;70.74;101894.50;5030716;28;20083;-89
2021/03/21 01:11:13;;;;;;;4.95;3.40;;;;;;;11.40;70.53;101887.44;5030516;28;20472;-88
2021/03/21 01:13:39;;;;;;;4.03;3.38;;;;;;;11.34;70.60;101895.63;5031843;28;20021;-88
2021/03/21 01:16:10;;;;;;;4.55;3.40;;;;;;;11.34;69.88;101892.16;5032241;28;20025;-88
2021/03/21 01:18:35;;;;;;;4.07;3.30;;;;;;;11.46;70.31;101891.56;5036353;28;20487;-89
2021/03/21 01:21:03;;;;;;;4.20;3.80;;;;;;;11.23;70.96;101879.50;5050325;28;20067;-89
2021/03/21 01:23:29;;;;;;;5.13;4.05;;;;;;;11.14;71.35;101872.03;5051589;28;20053;-89
2021/03/21 01:25:54;;;;;;;4.05;3.65;;;;;;;11.28;70.22;101861.75;5050323;28;20025;-88
2021/03/21 01:28:20;;;;;;;3.92;3.53;;;;;;;11.31;70.65;101887.88;5051886;28;20039;-88
2021/03/21 01:30:46;;;;;;;3.85;3.45;;;;;;;11.40;70.70;101884.81;5051702;28;20029;-88
2021/03/21 01:33:11;;;;;;;3.97;3.58;;;;;;;11.42;69.84;101888.22;5049771;28;20056;-88
2021/03/21 01:35:37;;;;;;;7.15;3.75;;;;;;;11.47;69.99;101898.53;5051371;28;20021;-89
2021/03/21 01:38:02;;;;;;;3.97;3.17;;;;;;;11.63;69.13;101886.34;5051498;28;20025;-89
2021/03/21 01:40:28;;;;;;;4.65;3.95;;;;;;;11.76;69.45;101894.47;5051593;28;20078;-88
2021/03/21 01:42:53;;;;;;;4.30;3.55;;;;;;;11.73;68.76;101892.00;5051555;28;20028;-88
2021/03/21 01:45:44;;;;;;;4.10;3.70;;;;;;;11.61;69.02;101890.84;5051391;28;20494;-89
2021/03/21 01:48:41;;;;;;;4.10;3.42;;;;;;;11.55;69.12;101891.09;5050910;28;20364;-89
2021/03/21 01:51:31;;;;;;;5.55;3.72;;;;;;;11.55;69.63;101882.38;4990734;28;20087;-88
2021/03/21 01:54:00;;;;;;;3.75;3.33;;;;;;;11.69;68.78;101886.03;5031948;28;20048;-89
2021/03/21 01:56:27;;;;;;;5.07;3.83;;;;;;;11.37;69.12;101863.91;5030256;28;20030;-88
2021/03/21 01:59:07;;;;;;;3.85;3.33;;;;;;;11.61;68.89;101879.44;5031399;28;20029;-89
2021/03/21 02:01:32;;;;;;;5.18;3.75;;;;;;;11.32;68.86;101885.19;5030151;28;20022;-87
2021/03/21 02:03:58;;;;;;;4.68;3.58;;;;;;;11.24;68.37;101883.84;5031485;28;20029;-88
2021/03/21 02:06:36;;;;;;;3.85;3.42;;;;;;;11.43;68.25;101889.06;5031769;28;20410;-88
2021/03/21 02:09:24;;;;;;;7.65;3.80;;;;;;;11.30;68.03;101879.16;5031462;28;20112;-89
2021/03/21 02:12:10;;;;;;;4.05;2.83;;;;;;;11.55;67.49;101877.09;5031312;28;20025;-88
2021/03/21 02:15:08;;;;;;;3.80;2.78;;;;;;;11.50;67.46;101865.03;5031649;28;20037;-89
2021/03/21 02:17:43;;;;;;;4.10;2.97;;;;;;;11.50;67.17;101875.56;5031283;28;20026;-88
2021/03/21 02:20:44;;;;;;;4.68;3.05;;;;;;;11.48;66.62;101860.78;5032552;28;20096;-89
2021/03/21 02:23:15;;;;;;;3.05;2.75;;;;;;;11.46;66.36;101850.34;5029875;28;20434;-89
2021/03/21 02:26:18;;;;;;;3.28;2.97;;;;;;;11.40;66.58;101849.78;5029979;28;20025;-88
2021/03/21 02:29:08;;;;;;;4.25;2.88;;;;;;;11.28;67.30;101867.00;5031175;28;20026;-88
2021/03/21 02:31:38;;;;;;;3.67;3.10;;;;;;;11.02;67.83;101858.56;5029769;28;20075;-88
2021/03/21 02:34:18;;;;;;;3.15;2.60;;;;;;;11.00;68.25;101841.16;5041041;28;20028;-88
2021/03/21 02:36:49;;;;;;;3.53;2.92;;;;;;;10.96;68.22;101852.72;5032966;28;20025;-88
2021/03/21 02:39:27;;;;;;;3.50;2.25;;;;;;;11.07;68.13;101850.47;5029964;28;20380;-88
2021/03/21 02:42:06;;;;;;;4.03;3.03;;;;;;;10.80;69.54;101837.69;5031445;28;20035;-88
2021/03/21 02:44:40;;;;;;;6.07;3.17;;;;;;;10.65;69.74;101833.13;5030982;28;20402;-89
2021/03/21 02:47:13;;;;;;;4.38;3.00;;;;;;;10.68;69.22;101833.84;5034432;28;20033;-89
2021/03/21 02:49:48;;;;;;;3.17;2.70;;;;;;;10.53;70.60;101834.53;5034679;28;20391;-88
2021/03/21 02:52:41;;;;;;;2.58;2.38;;;;;;;10.68;70.37;101844.34;5034923;28;20034;-89
2021/03/21 02:55:19;;;;;;;4.28;2.88;;;;;;;10.73;69.57;101836.25;5026617;28;20435;-88
2021/03/21 02:57:56;;;;;;;2.58;2.28;;;;;;;10.76;69.37;101825.59;5034297;28;20430;-89
2021/03/21 03:00:30;;;;;;;3.38;2.45;;;;;;;10.78;69.25;101815.91;5034436;28;20024;-89
2021/03/21 03:03:01;;;;;;;4.38;2.17;;;;;;;10.64;69.85;101811.28;5034396;28;20029;-88
2021/03/21 03:05:32;;;;;;;5.67;2.27;;;;;;;10.61;69.54;101805.31;5040101;28;20021;-88
2021/03/21 03:08:19;;;;;;;1.90;1.80;;;;;;;10.69;69.11;101806.66;5054262;28;20498;-88
2021/03/21 03:10:49;;;;;;;4.10;2.10;;;;;;;10.69;69.18;101817.16;5054156;28;20545;-88
2021/03/21 03:13:23;;;;;;;2.85;2.13;;;;;;;10.53;69.55;101813.53;5053990;28;20021;-88
2021/03/21 03:15:59;;;;;;;3.05;1.80;;;;;;;10.36;70.25;101811.66;5054135;28;20025;-88
2021/03/21 03:18:31;;;;;;;2.33;2.00;;;;;;;10.33;70.67;101830.19;5053731;28;20036;-88
2021/03/21 03:21:06;;;;;;;2.33;1.90;;;;;;;10.36;70.49;101829.19;5045149;28;20214;-88
2021/03/21 03:23:56;;;;;;;3.38;2.10;;;;;;;10.35;70.66;101825.72;5033654;28;20317;-89
2021/03/21 03:26:36;;;;;;;2.65;1.92;;;;;;;10.18;71.04;101807.19;5033859;28;20032;-88
2021/03/21 03:29:08;;;;;;;2.95;1.50;;;;;;;10.14;70.54;101811.72;5033976;28;20049;-88
2021/03/21 03:31:44;;;;;;;2.00;1.70;;;;;;;10.17;70.66;101826.47;5033801;28;20026;-88
2021/03/21 03:34:09;;;;;;;3.97;2.10;;;;;;;9.96;71.49;101812.53;5033741;28;20052;-89
2021/03/21 03:36:35;;;;;;;4.97;2.10;;;;;;;10.01;71.18;101821.03;5034870;28;20025;-88
2021/03/21 03:39:02;;;;;;;2.53;1.80;;;;;;;9.89;71.73;101825.91;5033517;28;20038;-88
2021/03/21 03:41:34;;;;;;;6.15;1.98;;;;;;;9.79;72.67;101821.09;5032310;28;20095;-88
2021/03/21 03:44:27;;;;;;;5.05;2.20;;;;;;;9.82;72.09;101813.09;5033700;28;20428;-88
2021/03/21 03:47:14;;;;;;;3.25;1.80;;;;;;;9.78;72.41;101820.25;5032150;28;20032;-87
2021/03/21 03:50:06;;;;;;;2.60;2.38;;;;;;;9.75;72.11;101828.22;5033199;28;20025;-87
2021/03/21 03:52:43;;;;;;;1.58;1.40;;;;;;;9.53;72.75;101820.41;5032505;28;20117;-87
2021/03/21 03:55:13;;;;;;;3.95;1.65;;;;;;;9.42;74.00;101823.47;5033040;28;20030;-89
2021/03/21 03:57:43;;;;;;;3.65;2.08;;;;;;;9.41;75.31;101827.00;5031939;28;20022;-89
2021/03/21 04:00:14;;;;;;;2.15;1.58;;;;;;;9.51;74.77;101830.94;5031960;28;20018;-88
2021/03/21 04:03:16;;;;;;;;;;;;;;;9.62;74.67;101827.06;5032328;28;20032;-88
2021/03/21 04:05:57;;;;;;;2.47;1.80;;;;;;;9.50;74.54;101834.50;4963909;28;20274;-89
2021/03/21 04:08:33;;;;;;;5.80;2.08;;;;;;;9.38;76.16;101821.91;5043923;28;20168;-87
2021/03/21 04:11:05;;;;;;;5.63;1.95;;;;;;;9.60;75.97;101836.75;5052953;28;20374;-89
2021/03/21 04:13:34;;;;;;;;;;;;;;;9.68;75.73;101837.28;5053419;28;20483;-89
2021/03/21 04:15:59;;;;;;;3.80;1.90;;;;;;;9.73;76.34;101827.44;5052880;28;20002;-89
2021/03/21 04:18:32;;;;;;;2.40;1.83;;;;;;;9.92;75.64;101820.50;5051630;28;20439;-89
2021/03/21 04:21:30;;;;;;;2.20;1.50;;;;;;;10.16;75.15;101823.00;5040432;28;20095;-89
2021/03/21 04:24:11;;;;;;;1.85;1.35;;;;;;;10.15;74.58;101830.94;5031416;28;20036;-90
2021/03/21 04:26:48;;;;;;;2.15;1.90;;;;;;;10.27;74.65;101833.03;5032691;28;20037;-89
2021/03/21 04:29:22;;;;;;;2.45;1.70;;;;;;;10.42;74.14;101828.91;5031409;28;20026;-88
2021/03/21 04:31:51;;;;;;;1.73;1.42;;;;;;;10.55;73.25;101830.06;5031401;28;20029;-89
2021/03/21 04:34:19;;;;;;;3.75;1.83;;;;;;;10.56;72.93;101825.66;5032532;28;20026;-89
2021/03/21 04:36:47;;;;;;;1.55;1.23;;;;;;;10.55;72.79;101824.81;5034535;28;20025;-89
2021/03/21 04:39:15;;;;;;;4.05;1.67;;;;;;;10.62;72.63;101828.84;5030978;28;20033;-89
2021/03/21 04:41:45;;;;;;;3.30;1.80;;;;;;;10.62;72.17;101834.09;5031097;28;20017;-89
2021/03/21 04:44:20;;;;;;;3.50;1.77;;;;;;;10.51;72.75;101831.97;5031008;28;20411;-89
2021/03/21 04:46:54;;;;;;;3.47;2.00;;;;;;;10.56;72.86;101834.38;5032638;28;20068;-88
2021/03/21 04:49:21;;;;;;;4.82;1.88;;;;;;;10.48;72.88;101837.34;5032636;28;20029;-88
2021/03/21 04:51:48;;;;;;;5.00;2.00;;;;;;;10.49;73.14;101835.59;5048137;28;20562;-88
2021/03/21 04:54:20;;;;;;;4.70;1.98;;;;;;;10.18;74.87;101838.69;5052285;28;20017;-89
2021/03/21 04:57:06;;;;;;;3.53;2.20;;;;;;;10.34;74.00;101834.50;5052101;28;20047;-89
2021/03/21 04:59:35;;;;;;;3.88;2.28;;;;;;;10.24;74.84;101848.91;5050673;28;20025;-89
2021/03/21 05:02:30;;;;;;;4.65;2.10;;;;;;;10.19;74.73;101837.75;5050667;28;20081;-89
2021/03/21 05:05:05;;;;;;;2.80;1.85;;;;;;;10.09;75.75;101839.91;5051625;28;20029;-87
2021/03/21 05:07:39;;;;;;;3.05;1.70;;;;;;;10.07;76.14;101839.13;5050430;28;20029;-89
2021/03/21 05:10:38;;;;;;;4.10;2.15;;;;;;;10.29;75.26;101831.22;5050666;28;20064;-88
2021/03/21 05:13:37;;;;;;;3.28;2.17;;;;;;;10.42;74.94;101847.28;5050390;28;20466;-89
2021/03/21 05:16:10;;;;;;;6.72;3.17;;;;;;;10.50;74.89;101839.91;5051776;28;20087;-89
2021/03/21 05:18:39;;;;;;;4.38;2.70;;;;;;;10.29;75.91;101841.72;5051828;28;20040;-89
2021/03/21 05:21:07;;;;;;;5.65;2.97;;;;;;;10.17;76.58;101850.09;5048883;28;20071;-88
2021/03/21 05:24:11;;;;;;;4.80;2.75;;;;;;;10.35;75.97;101840.59;5050318;28;20053;-88
2021/03/21 05:27:17;;;;;;;5.00;2.83;;;;;;;10.44;75.94;101848.91;5047689;28;20151;-89
2021/03/21 05:30:03;;;;;;;3.58;2.63;;;;;;;10.50;75.96;101845.16;4970627;28;20118;-88
2021/03/21 05:32:30;;;;;;;7.78;3.65;;;;;;;10.48;76.02;101860.13;4970706;28;20035;-88
2021/03/21 05:34:57;;;;;;;5.25;3.58;;;;;;;10.60;75.45;101851.72;5018338;28;20044;-88
2021/03/21 05:38:00;;;;;;;6.97;2.95;;;;;;;10.42;75.92;101858.63;5037386;28;20036;-88
2021/03/21 05:40:44;;;;;;;5.05;3.25;;;;;;;10.61;75.42;101856.06;5051487;28;20116;-88
2021/03/21 05:43:11;;;;;;;6.03;3.72;;;;;;;10.56;75.72;101852.75;5051470;28;20022;-88
2021/03/21 05:46:14;;;;;;;7.15;3.97;;;;;;;10.49;76.62;101853.97;5051620;28;20126;-88
2021/03/21 05:49:00;;;;;;;6.03;3.60;;;;;;;10.35;76.56;101857.22;5051597;28;20036;-88
2021/03/21 05:51:54;;;;;;;9.00;5.13;;;;;;;10.57;76.08;101862.38;5051382;28;20025;-88
2021/03/21 05:54:58;;;;;;;7.72;5.22;;;;;;;10.61;76.12;101863.09;5078258;22;20049;-84
2021/03/21 05:57:45;;;;;;;8.25;5.15;;;;;;;10.61;76.43;101863.94;5030545;28;20425;-84
2021/03/21 06:00:34;;;;;;;15.45;6.68;;;;;;;10.51;77.02;101868.75;5031957;28;20021;-84
2021/03/21 06:03:11;;;;;;;10.50;7.20;;;;;;;10.45;77.88;101868.16;5031774;28;20048;-84
2021/03/21 06:05:58;;;;;;;10.98;6.85;;;;;;;10.70;77.26;101871.41;5031762;28;20025;-84
2021/03/21 06:08:56;;;;;;;7.95;7.13;;;;;;;10.68;76.71;101875.00;5031515;28;20053;-84
2021/03/21 06:11:49;;;;;;;9.20;7.30;;;;;;;10.51;78.15;101883.66;5030289;28;20471;-84
2021/03/21 06:14:47;;;;;;;12.30;7.97;;;;;;;10.48;78.68;101883.78;5031746;28;20026;-84
2021/03/21 06:17:22;;;;;;;11.75;7.65;;;;;;;10.68;77.62;101886.38;5031638;28;20028;-84
2021/03/21 06:20:19;;;;;;;12.73;7.63;;;;;;;10.86;76.94;101891.72;5031678;28;20033;-84
2021/03/21 06:23:09;;;;;;;12.48;7.82;;;;;;;10.91;76.57;101897.63;5042893;28;20025;-84
2021/03/21 06:25:37;;;;;;;12.75;8.63;;;;;;;10.81;76.99;101891.94;5054175;28;20021;-84
2021/03/21 06:28:35;;;;;;;14.35;8.05;;;;;;;10.75;77.76;101886.09;5055375;28;20036;-83
2021/03/21 06:31:29;;;;;;;13.25;8.73;;;;;;;10.71;77.60;101899.38;5055237;28;20039;-84
2021/03/21 06:33:58;;;;;;;14.50;8.48;;;;;;;10.80;78.18;101913.00;5053839;28;20052;-84
2021/03/21 06:36:56;;;;;;;14.02;9.15;;;;;;;10.58;78.77;101908.72;5054114;28;20387;-84
2021/03/21 06:39:40;;;;;;;12.85;9.15;;;;;;;10.40;79.62;101907.75;5033501;28;20037;-84
2021/03/21 06:42:37;;;;;;;13.55;9.50;;;;;;;10.43;79.93;101912.03;5034939;28;20372;-84
2021/03/21 06:45:25;;;;;;;13.05;9.00;;;;;;;10.51;79.83;101904.66;5035097;28;20018;-84
2021/03/21 06:48:09;;;;;;;13.15;9.18;;;;;;;10.65;78.79;101904.06;5033347;28;20029;-83
2021/03/21 06:50:48;;;;;;;18.88;9.55;;;;;;;10.76;78.94;101908.81;5035100;28;20083;-84
2021/03/21 06:53:36;;;;;;;13.77;9.48;;;;;;;10.82;78.42;101905.91;5036500;28;20384;-84
2021/03/21 06:56:32;;;;;;;17.55;9.88;;;;;;;10.82;79.16;101911.16;5034776;28;20077;-84
2021/03/21 06:59:34;;;;;;;13.38;9.52;;;;;;;10.90;78.88;101911.69;5035164;28;20518;-84
2021/03/21 07:02:33;;;;;;;12.65;9.18;;;;;;;10.89;78.93;101910.81;5035072;28;20022;-84
2021/03/21 07:05:31;;;;;;;19.02;9.75;;;;;;;10.72;79.06;101913.34;5034817;28;20034;-84
2021/03/21 07:08:13;;;;;;;16.27;9.88;;;;;;;10.85;78.93;101908.41;5044756;28;20290;-84
2021/03/21 07:11:15;;;;;;;17.88;10.00;;;;;;;11.04;77.89;101911.91;5035426;28;20381;-84
2021/03/21 07:15:47;;;;;;;10.82;8.55;;;;;;;11.09;77.97;101917.78;5067822;28;20396;-85
2021/03/21 07:18:53;;;;;;;14.32;9.25;;;;;;;11.26;76.85;101910.94;5071359;28;20037;-85
2021/03/21 07:21:56;;;;;;;14.93;8.57;;;;;;;11.30;76.95;101909.84;5069764;28;20174;-85
2021/03/21 07:24:33;;;;;;;16.83;8.57;;;;;;;11.34;77.04;101897.41;5048876;28;20036;-84
2021/03/21 07:27:25;;;;;;;14.93;8.60;;;;;;;11.34;76.95;101906.16;5048780;28;20298;-84
2021/03/21 07:30:00;;;;;;;10.70;8.38;;;;;;;11.39;76.73;101908.56;5049019;28;20021;-84
2021/03/21 07:33:13;;;;;;;12.70;8.40;;;;;;;11.57;76.51;101909.44;5049076;28;20026;-84
2021/03/21 07:35:56;;;;;;;12.27;8.68;;;;;;;11.75;75.18;101903.31;5065587;28;20045;-83
2021/03/21 07:38:38;;;;;;;15.68;8.43;;;;;;;11.97;74.28;101911.03;5060956;28;20055;-83
2021/03/21 07:41:26;;;;;;;13.77;8.13;;;;;;;11.64;74.55;101919.59;5058203;28;20025;-84
2021/03/21 07:44:23;;;;;;;16.05;8.02;;;;;;;11.93;74.28;101917.38;5050223;28;20135;-84
2021/03/21 07:47:06;;;;;;;13.30;8.13;;;;;;;11.71;75.22;101921.03;5064255;28;20036;-84
2021/03/21 07:49:31;;;;;;;16.15;8.02;;;;;;;11.87;74.44;101917.66;5046505;28;20031;-84
2021/03/21 07:54:52;;;;;;;11.15;8.00;;;;;;;12.14;73.27;101912.81;5047027;28;20053;-93
2021/03/21 07:57:31;;;;;;;9.45;7.65;;;;;;;11.99;73.78;101914.44;5048643;28;20487;-93
2021/03/21 07:59:57;;;;;;;14.10;8.02;;;;;;;12.23;72.35;101914.13;5034833;28;20092;-93
2021/03/21 08:02:25;;;;;;;11.95;8.90;;;;;;;12.29;72.62;101917.28;5027170;28;20026;-92
2021/03/21 08:04:54;;;;;;;10.02;7.45;;;;;;;12.27;72.86;101927.06;5044489;28;20025;-93
2021/03/21 08:07:35;;;;;;;9.85;7.57;;;;;;;12.58;71.74;101928.13;5048576;28;20029;-93
2021/03/21 08:10:16;;;;;;;12.20;7.80;;;;;;;12.45;71.92;101925.25;5041663;28;20476;-94
2021/03/21 08:12:49;;;;;;;14.27;7.57;;;;;;;12.60;71.20;101925.38;5043702;28;20025;-93
2021/03/21 08:15:28;;;;;;;14.60;8.32;;;;;;;12.63;71.42;101931.34;5031689;28;20060;-94
2021/03/21 08:18:02;;;;;;;12.15;6.25;;;;;;;12.48;71.03;101929.53;5046601;28;20022;-93
2021/03/21 08:20:35;;;;;;;11.85;7.53;;;;;;;12.85;69.91;101931.06;5048431;28;20029;-94
2021/03/21 08:23:23;;;;;;;10.77;7.85;;;;;;;12.77;70.20;101928.00;5063575;28;20430;-93
2021/03/21 08:25:51;;;;;;;12.43;6.88;;;;;;;13.16;68.84;101933.88;5039747;28;20025;-93
2021/03/21 08:28:20;;;;;;;11.02;7.38;;;;;;;13.06;69.19;101928.22;5035151;28;20087;-94
2021/03/21 08:30:52;;;;;;;9.77;7.38;;;;;;;12.78;70.49;101928.88;5033873;28;20029;-94
2021/03/21 08:33:44;;;;;;;11.35;7.25;;;;;;;13.27;68.47;101931.50;5029565;28;20033;-93
2021/03/21 08:36:29;;;;;;;8.18;6.93;;;;;;;13.09;68.16;101933.31;5014964;28;20034;-95
2021/03/21 08:38:54;;;;;;;15.35;7.57;;;;;;;13.28;69.08;101926.13;5026615;28;20038;-93
2021/03/21 08:41:20;;;;;;;12.15;6.68;;;;;;;13.19;67.06;101907.31;5035345;28;20025;-93
2021/03/21 08:43:46;;;;;;;11.07;5.93;;;;;;;13.45;67.07;101929.66;5032728;28;20037;-94
2021/03/21 08:46:16;;;;;;;16.90;5.80;;;;;;;13.06;68.00;101942.25;5030561;28;20525;-96
2021/03/21 08:48:44;;;;;;;14.45;6.30;;;;;;;12.98;68.56;101933.91;5026676;28;20022;-94
2021/03/21 08:51:12;;;;;;;8.90;5.32;;;;;;;13.61;66.06;101940.22;5034709;28;20017;-94
2021/03/21 08:53:52;;;;;;;8.55;4.85;;;;;;;13.60;65.26;101943.75;5031098;28;20079;-94
2021/03/21 08:56:21;;;;;;;8.15;4.93;;;;;;;13.95;64.84;101938.28;5029541;28;20030;-96
2021/03/21 08:58:50;;;;;;;10.35;4.60;;;;;;;14.14;62.86;101943.31;5018375;28;20044;-95
2021/03/21 09:01:20;;;;;;;7.85;4.35;;;;;;;13.98;62.12;101940.72;5025486;28;20041;-95
2021/03/21 09:03:47;;;;;;;6.47;4.30;;;;;;;14.31;62.16;101948.47;5022444;28;20044;-94
2021/03/21 09:06:34;;;;;;;11.57;4.68;;;;;;;14.48;60.53;101942.19;5028924;28;20032;-96
2021/03/21 09:09:34;;;;;;;7.93;4.75;;;;;;;14.45;62.13;101947.66;5037605;28;20029;-95
2021/03/21 09:12:25;;;;;;;5.70;3.65;;;;;;;14.67;59.63;101944.59;5018059;28;20049;-95
2021/03/21 09:15:12;;;;;;;7.32;4.47;;;;;;;14.71;60.92;101940.84;5013991;28;20041;-94
2021/03/21 09:17:37;;;;;;;8.68;4.30;;;;;;;14.92;59.33;101935.16;5024893;28;20030;-95
2021/03/21 09:20:04;;;;;;;6.25;4.03;;;;;;;15.06;59.44;101941.28;5036330;28;20036;-96
2021/03/21 09:22:37;;;;;;;7.38;4.25;;;;;;;15.46;56.78;101952.03;5030669;28;20030;-94
2021/03/21 09:25:21;;;;;;;7.35;3.25;;;;;;;15.71;55.32;101949.56;5029007;28;20053;-93
2021/03/21 09:27:47;;;;;;;12.70;3.60;;;;;;;15.76;55.41;101952.81;5026479;28;20028;-94
2021/03/21 09:30:28;;;;;;;8.65;3.83;;;;;;;16.06;55.12;101952.59;5026190;28;20036;-95
2021/03/21 09:33:04;;;;;;;4.93;3.05;;;;;;;15.97;54.75;101947.91;5034014;28;20028;-94
2021/03/21 09:35:38;;;;;;;5.60;3.42;;;;;;;15.79;55.64;101948.16;5045430;28;20029;-95
2021/03/21 09:38:13;;;;;;;6.05;3.20;;;;;;;16.01;56.57;101939.63;5035948;28;20387;-93
2021/03/21 09:40:42;;;;;;;9.18;3.55;;;;;;;16.51;54.88;101947.78;5033713;28;20025;-94
2021/03/21 09:43:13;;;;;;;5.28;2.53;;;;;;;16.48;52.34;101950.63;5040443;28;20018;-94
2021/03/21 09:45:50;;;;;;;7.80;3.10;;;;;;;16.59;50.77;101945.44;5036930;28;20036;-95
2021/03/21 09:48:36;;;;;;;9.15;2.70;;;;;;;16.77;50.47;101937.19;5042535;28;20091;-96
2021/03/21 09:51:04;;;;;;;4.78;2.60;;;;;;;17.21;49.72;101951.78;5032957;28;20033;-95
2021/03/21 09:53:54;;;;;;;5.40;2.85;;;;;;;17.47;49.69;101960.53;5027309;28;20487;-94
2021/03/21 09:56:31;;;;;;;9.10;2.88;;;;;;;17.39;48.40;101950.44;5034348;28;20037;-95
2021/03/21 09:59:28;;;;;;;6.10;3.05;;;;;;;17.62;48.65;101955.91;5035732;28;20025;-95
2021/03/21 10:02:02;;;;;;;8.35;3.20;;;;;;;18.42;47.56;101964.13;5010115;28;20132;-95
2021/03/21 10:04:45;;;;;;;7.95;2.95;;;;;;;18.57;46.00;101962.09;5033142;28;20025;-91
2021/03/21 10:07:26;;;;;;;9.23;3.13;;;;;;;18.24;44.86;101944.22;5029009;28;20063;-90
2021/03/21 10:09:53;;;;;;;8.45;2.95;;;;;;;18.18;44.84;101966.81;5032283;28;20026;-91
2021/03/21 10:12:21;;;;;;;5.22;2.63;;;;;;;18.06;46.65;101935.84;5032321;28;20113;-91
2021/03/21 10:14:59;;;;;;;8.48;2.60;;;;;;;17.86;46.65;101955.09;5030498;28;20030;-92
2021/03/21 10:17:25;;;;;;;6.50;2.65;;;;;;;18.16;46.21;101957.25;5032050;28;20029;-92
2021/03/21 10:19:53;;;;;;;9.55;2.80;;;;;;;17.90;46.28;101964.53;5031320;28;20377;-91
2021/03/21 10:22:25;;;;;;;6.07;2.45;;;;;;;18.22;45.15;101952.31;5031287;28;20037;-91
2021/03/21 10:24:53;;;;;;;6.45;2.15;;;;;;;17.91;45.46;101947.63;5032340;28;20025;-91
2021/03/21 10:27:21;;;;;;;4.38;2.13;;;;;;;17.92;45.28;101957.31;5031248;28;20029;-92
2021/03/21 10:30:08;;;;;;;6.50;2.13;;;;;;;17.90;44.75;101959.22;5031077;28;20041;-92
2021/03/21 10:32:36;;;;;;;4.00;1.98;;;;;;;18.09;43.52;101950.69;5032112;28;20032;-91
2021/03/21 10:35:04;;;;;;;7.43;1.98;;;;;;;18.06;43.18;101972.22;5021452;28;20490;-91
2021/03/21 10:37:42;;;;;;;7.50;2.50;;;;;;;18.01;45.27;101969.91;5031635;28;20029;-91
2021/03/21 10:40:12;;;;;;;7.53;2.25;;;;;;;18.10;44.29;101952.41;5015319;28;20028;-91
2021/03/21 10:42:51;;;;;;;7.15;2.10;;;;;;;17.93;44.45;101951.00;5017004;28;20497;-91
2021/03/21 10:45:38;;;;;;;4.80;1.90;;;;;;;18.41;43.21;101943.78;5023448;28;20041;-91
2021/03/21 10:48:19;;;;;;;6.95;1.90;;;;;;;19.33;42.24;101970.38;5025013;28;20095;-91
2021/03/21 10:50:56;;;;;;;5.07;2.13;;;;;;;19.62;40.48;101969.81;5014598;28;20334;-92
2021/03/21 10:53:33;;;;;;;7.10;2.08;;;;;;;19.50;40.87;101970.81;5025134;28;20026;-93
2021/03/21 10:56:17;;;;;;;10.27;2.55;;;;;;;19.54;40.87;101972.25;5025833;28;20494;-94
2021/03/21 10:58:45;;;;;;;7.43;2.00;;;;;;;19.89;40.85;101969.41;5013559;28;20021;-92
2021/03/21 11:01:17;;;;;;;6.28;1.80;;;;;;;19.64;38.93;101969.69;5024585;28;20036;-91
2021/03/21 11:04:01;;;;;;;6.55;2.35;;;;;;;20.20;39.14;101964.16;5036939;28;20081;-93
2021/03/21 11:06:32;;;;;;;7.65;2.40;;;;;;;20.35;39.14;101962.03;5034949;28;20033;-92
2021/03/21 11:09:10;;;;;;;6.13;1.65;;;;;;;21.16;37.82;101963.00;5026681;28;20034;-93
2021/03/21 11:11:41;;;;;;;4.82;2.10;;;;;;;20.87;36.60;101960.22;5044159;28;20049;-93
2021/03/21 11:14:18;;;;;;;5.22;1.90;;;;;;;20.93;38.38;101961.50;5032532;28;20033;-94
2021/03/21 11:16:55;;;;;;;4.68;1.70;;;;;;;21.71;36.43;101953.75;5050424;28;20030;-92
2021/03/21 11:19:25;;;;;;;7.15;2.38;;;;;;;21.52;34.64;101962.56;5039477;28;20040;-92
2021/03/21 11:22:11;;;;;;;9.48;2.25;;;;;;;22.29;34.88;101958.25;5048029;28;20073;-94
2021/03/21 11:24:44;;;;;;;5.68;1.85;;;;;;;23.16;33.20;101949.09;5043020;28;20034;-91
2021/03/21 11:27:13;;;;;;;4.10;1.60;;;;;;;22.74;34.25;101930.78;5038264;28;20116;-92
2021/03/21 11:29:41;;;;;;;5.13;1.60;;;;;;;22.59;32.84;101959.88;5033146;28;20025;-92
2021/03/21 11:32:27;;;;;;;4.75;1.70;;;;;;;23.51;30.90;101955.50;5028913;28;20040;-91
2021/03/21 11:35:08;;;;;;;4.65;1.60;;;;;;;22.73;32.97;101946.03;5024853;28;20034;-90
2021/03/21 11:37:39;;;;;;;5.65;1.40;;;;;;;23.57;32.74;101952.22;5018199;28;20033;-90
2021/03/21 11:40:20;;;;;;;;;;;;;;;24.85;31.28;101948.19;5019124;28;20053;-94
2021/03/21 11:42:49;;;;;;;4.75;1.50;;;;;;;24.64;29.07;101942.38;5042217;28;20062;-96
2021/03/21 11:45:20;;;;;;;4.28;1.55;;;;;;;24.71;29.53;101944.28;5030990;28;20048;-89
2021/03/21 11:47:49;;;;;;;7.25;1.95;;;;;;;23.67;30.09;101936.91;5030454;28;20101;-87
2021/03/21 11:52:21;;;;;;;4.63;1.63;;;;;;;23.64;30.08;101928.34;5081467;28;20396;-91
2021/03/21 11:54:47;;;;;;;7.28;2.58;;;;;;;23.55;30.04;101927.41;5061911;28;20043;-89
2021/03/21 11:57:43;;;;;;;6.80;1.42;;;;;;;22.99;31.41;101926.59;5048372;28;20467;-93
2021/03/21 12:00:26;;;;;;;4.72;1.60;;;;;;;23.75;30.64;101928.91;5053886;28;20031;-89
2021/03/21 12:03:06;;;;;;;10.10;1.95;;;;;;;23.44;31.25;101928.47;5053062;28;20052;-90
2021/03/21 12:05:38;;;;;;;5.05;1.98;;;;;;;23.05;31.83;101930.56;5049498;28;20036;-94
2021/03/21 12:08:22;;;;;;;4.55;1.17;;;;;;;23.40;31.70;101935.13;5050814;28;20106;-91
2021/03/21 12:10:49;;;;;;;7.60;1.63;;;;;;;22.96;30.62;101927.72;5069732;28;20120;-93
2021/03/21 12:13:24;;;;;;;8.48;1.40;;;;;;;23.42;32.12;101930.47;5065106;28;20025;-94
2021/03/21 12:15:53;;;;;;;5.97;1.48;;;;;;;23.31;29.89;101920.78;5048444;28;20025;-93